ミンスク/第2 の空港の天気 - METARとTAF

ミンスク第2空港 ( UMMS / MSQ ) - ベラルーシ ミンスク
飛行場実況気象(Metar)
観測時間07/19 07:00 MSK (07/19 04:00 UTC)
風向・風速西北西 3m/s
視程10km以上
天気現象
なし
気温14℃
湿度82%
気圧1011hPa
METARUMMS 190400Z 29003MPS CAVOK 14/11 Q1011 R31L/CLRD// NOSIG
過去の天気等 Google飛行場航空写真 Wunderground天気予報

過去48時間のMETAR

飛行場予報(TAF)
発表時間: 7/19 02:03 MSK (7/18 23:03 UTC)
予報対象時間: 19日3時 MSK ~ 20日3時 MSK
風向・風速西 5m/s
視程10km以上
全天の8割程度の雲 雲底高度 460m
19日3時 MSK ~ 19日8時 MSK に一時的に
視程400m
天気現象
全天の8割程度の雲 雲底高度 60m
19日8時 MSK ~ 19日21時 MSK に一時的に
風向・風速西 8m/s 瞬間風速 13m/s
19日23時 MSK ~ 20日3時 MSK に一時的に
視程1200m
天気現象もや
全天の4割程度の雲 雲底高度 90m
TAF UMMS 182303Z 1900/1924 27005MPS 9999 BKN015
TEMPO 1900/1905 0400 FG BKN002
TEMPO 1905/1918 27008G13MPS
TEMPO 1920/1924 1200 BR SCT003